Pagrindinis puslapis
METAR-TAF:

METAR-TAF

Oro uostai :

Stokholmas, Švedija

platuma: 59-21N, ilguma: 017-57E, Aukštis: 14 m

Dabartinis oras

Ataskaita buvo paskelbta 44 minutes, ne 11:50 UTC
Vėjas 10 kt iš Pietvakarių
Temperatūra 21°C
Drėgmė 46%
Slėgis 1024 hPa
Matomumas 10 km arba daugiau
Išsisklaidę debesys ne aukštis 4200 ft

METAR: ESSB 221150Z 23010KT 9999 SCT042 21/09 Q1024

Laikas: 14:34 (12:34 UTC)

Prognozė

Ataskaita buvo paskelbta 1 valandą ir 4 minutes, ne 11:30 UTC
Prognozė galioja nuo 22 metu 12 UTC su 22 metu 20 UTC
Vėjas 10 kt iš Vakarų/Pietvakarių
Matomumas 10 km arba daugiau
Išsisklaidę debesys ne aukštis 3000 ft
Tikimybė 40%
nuo 22 metu 18 UTC su 22 metu 20 UTC
lietus

TAF: ESSB 221130Z 2212/2220 24010KT 9999 SCT030 PROB40 2218/2220 RA

Orai ataskaitas ir orų prognozės (METAR, TAF).

turimą stotys yra geltonos ir raudonos taškus žemėlapyje.

Perkelti pele per norėdami pamatyti stoties vardą.

Tada spustelėkite, norėdami matyti oro stebėjimo ir prognozės.

Norėdami pakeisti žemėlapį: spustelėkite ant žalios mygtukų su juodo kryžiaus žemyn,; žalią mygtuką su brūkšneliu, jei norite nutolinti; arba žalių rodyklių gretimoms žemėlapius.


METAR-TAF: